Time;durP1;ratioP1;P1;durP2;ratioP2;P2;SDS_P1;SDS_P2;PMS_P1;PMS_P2;Temp;Humidity;BMP_temperature;BMP_pressure;BME280_temperature;BME280_humidity;BME280_pressure;Samples;Min_cycle;Max_cycle;Signal;HPM_P1;HPM_P2
2023/08/10 00:00:50;;;;;;;;;;;16.40;99.90;;;;;;20786014;28;19967;-76
2023/08/10 00:10:50;;;;;;;;;;;16.10;99.90;;;;;;20782609;28;19922;-76
2023/08/10 00:20:51;;;;;;;;;;;16.00;99.90;;;;;;20785354;28;20375;-76
2023/08/10 00:30:51;;;;;;;;;;;16.00;99.90;;;;;;20777103;28;19917;-76
2023/08/10 00:40:52;;;;;;;;;;;15.80;99.90;;;;;;20784419;28;19914;-76
2023/08/10 00:50:53;;;;;;;;;;;15.00;99.90;;;;;;20796867;28;19924;-76
2023/08/10 01:00:54;;;;;;;;;;;15.40;99.90;;;;;;20783878;28;19914;-76
2023/08/10 01:11:06;;;;;;;;;;;15.20;99.90;;;;;;20779340;28;19917;-76
2023/08/10 01:21:19;;;;;;;;;;;15.30;99.90;;;;;;20791968;28;19913;-76
2023/08/10 01:31:20;;;;;;;;;;;15.40;99.90;;;;;;20801863;28;19923;-76
2023/08/10 01:41:22;;;;;;;;;;;14.90;99.90;;;;;;20836762;28;19955;-76
2023/08/10 01:51:25;;;;;;;;;;;15.00;99.90;;;;;;20835328;28;19917;-76
2023/08/10 02:01:25;;;;;;;;;;;15.20;99.90;;;;;;20833772;28;19924;-76
2023/08/10 02:11:26;;;;;;;;;;;15.10;99.90;;;;;;20833918;28;20273;-76
2023/08/10 02:21:28;;;;;;;;;;;15.10;99.90;;;;;;20832557;28;19920;-76
2023/08/10 02:31:28;;;;;;;;;;;14.90;99.90;;;;;;20829135;28;19917;-76
2023/08/10 02:41:29;;;;;;;;;;;15.10;99.90;;;;;;20832191;28;20302;-76
2023/08/10 02:51:30;;;;;;;;;;;15.20;99.90;;;;;;20831545;28;19953;-76
2023/08/10 03:01:30;;;;;;;;;;;15.20;99.90;;;;;;20830418;28;20279;-76
2023/08/10 03:11:32;;;;;;;;;;;15.20;99.90;;;;;;20828488;28;20287;-76
2023/08/10 03:21:33;;;;;;;;;;;15.30;99.90;;;;;;20827496;28;19920;-76
2023/08/10 03:31:33;;;;;;;;;;;15.00;99.90;;;;;;20843183;28;20060;-76
2023/08/10 03:41:35;;;;;;;;;;;15.00;99.90;;;;;;20825399;28;19996;-76
2023/08/10 03:51:36;;;;;;;;;;;14.90;99.90;;;;;;20861081;28;20040;-76
2023/08/10 04:01:37;;;;;;;;;;;14.90;99.90;;;;;;20864763;28;20426;-76
2023/08/10 04:11:38;;;;;;;;;;;14.90;99.90;;;;;;20822321;28;19920;-76
2023/08/10 04:21:39;;;;;;;;;;;14.80;99.90;;;;;;20821363;28;19949;-76
2023/08/10 04:31:40;;;;;;;;;;;14.60;99.90;;;;;;20824902;28;20023;-76
2023/08/10 04:41:40;;;;;;;;;;;14.60;99.90;;;;;;20824156;28;19983;-77
2023/08/10 04:51:41;;;;;;;;;;;14.80;99.90;;;;;;20830976;28;19920;-76
2023/08/10 05:01:42;;;;;;;;;;;15.00;99.90;;;;;;20836610;28;19913;-76
2023/08/10 05:11:43;;;;;;;;;;;15.30;99.90;;;;;;20784007;28;19920;-76
2023/08/10 05:21:44;;;;;;;;;;;15.30;99.90;;;;;;20816410;28;19917;-76
2023/08/10 05:31:44;;;;;;;;;;;15.60;99.90;;;;;;21151499;22;19931;-75
2023/08/10 05:41:45;;;;;;;;;;;15.60;99.90;;;;;;21174368;28;20444;-75
2023/08/10 05:51:45;;;;;;;;;;;15.70;99.90;;;;;;21172905;28;19926;-75
2023/08/10 06:01:47;;;;;;;;;;;16.00;99.90;;;;;;21174298;28;19943;-75
2023/08/10 06:11:48;;;;;;;;;;;16.20;99.90;;;;;;21174108;28;19923;-75
2023/08/10 06:21:48;;;;;;;;;;;16.60;99.90;;;;;;21167997;27;19912;-75
2023/08/10 06:31:49;;;;;;;;;;;17.20;99.90;;;;;;21165202;28;19967;-74
2023/08/10 06:41:50;;;;;;;;;;;17.80;99.90;;;;;;21171257;28;19912;-75
2023/08/10 06:51:53;;;;;;;;;;;18.40;99.90;;;;;;21137657;28;19988;-75
2023/08/10 07:01:54;;;;;;;;;;;18.90;99.90;;;;;;21029956;28;20501;-75
2023/08/10 07:11:55;;;;;;;;;;;19.30;99.90;;;;;;20995967;28;19912;-75
2023/08/10 07:21:55;;;;;;;;;;;19.80;99.90;;;;;;20995214;28;19912;-74
2023/08/10 07:32:00;;;;;;;;;;;20.40;99.90;;;;;;21088836;28;20216;-75
2023/08/10 07:42:01;;;;;;;;;;;21.00;99.90;;;;;;21161220;28;19958;-75
2023/08/10 07:52:02;;;;;;;;;;;21.60;99.90;;;;;;21160385;28;20003;-73
2023/08/10 08:02:03;;;;;;;;;;;22.10;99.90;;;;;;21159696;28;19967;-74
2023/08/10 08:12:04;;;;;;;;;;;22.20;99.90;;;;;;21159854;28;20002;-74
2023/08/10 08:22:04;;;;;;;;;;;22.80;99.90;;;;;;21159842;28;19916;-74
2023/08/10 08:32:05;;;;;;;;;;;23.00;99.90;;;;;;21125478;28;20416;-74
2023/08/10 08:42:06;;;;;;;;;;;24.10;99.90;;;;;;21007901;28;19917;-74
2023/08/10 08:52:06;;;;;;;;;;;24.20;99.90;;;;;;21068270;28;19919;-74
2023/08/10 09:02:09;;;;;;;;;;;24.60;99.90;;;;;;21121812;28;19926;-74
2023/08/10 09:12:29;;;;;;;;;;;26.00;99.90;;;;;;21157246;28;19919;-74
2023/08/10 09:22:34;;;;;;;;;;;25.50;99.90;;;;;;21146154;28;20460;-74
2023/08/10 09:32:35;;;;;;;;;;;25.40;99.90;;;;;;21026804;28;19916;-73
2023/08/10 09:42:36;;;;;;;;;;;25.20;99.90;;;;;;21021679;28;19923;-74
2023/08/10 09:52:37;;;;;;;;;;;26.90;99.90;;;;;;21001863;28;20298;-74
2023/08/10 10:02:38;;;;;;;;;;;26.70;99.90;;;;;;21108028;28;20408;-74
2023/08/10 10:12:39;;;;;;;;;;;27.20;99.90;;;;;;21171549;27;19912;-74
2023/08/10 10:22:40;;;;;;;;;;;27.60;99.90;;;;;;21168109;28;20522;-75
2023/08/10 10:32:48;;;;;;;;;;;28.40;99.90;;;;;;21167278;28;19919;-74
2023/08/10 10:43:01;;;;;;;;;;;28.60;99.90;;;;;;21165915;27;19923;-74
2023/08/10 10:53:03;;;;;;;;;;;29.10;99.90;;;;;;21164973;28;19911;-74
2023/08/10 11:03:04;;;;;;;;;;;28.60;99.90;;;;;;21139908;27;19969;-74
2023/08/10 11:13:06;;;;;;;;;;;28.10;99.90;;;;;;21021227;28;19913;-74
2023/08/10 11:23:07;;;;;;;;;;;29.20;99.90;;;;;;21008129;22;19916;-73
2023/08/10 11:33:08;;;;;;;;;;;30.20;99.50;;;;;;20992065;28;19916;-71
2023/08/10 11:43:12;;;;;;;;;;;30.30;99.90;;;;;;20993206;28;19931;-71
2023/08/10 11:53:15;;;;;;;;;;;27.70;99.90;;;;;;20992308;28;20340;-71
2023/08/10 12:03:21;;;;;;;;;;;28.40;99.90;;;;;;20989379;28;20271;-71
2023/08/10 12:13:22;;;;;;;;;;;29.70;99.90;;;;;;20991361;28;19935;-71
2023/08/10 12:23:23;;;;;;;;;;;31.30;95.90;;;;;;20990406;28;19916;-71
2023/08/10 12:33:23;;;;;;;;;;;30.30;94.70;;;;;;20989779;28;20408;-73
2023/08/10 12:43:24;;;;;;;;;;;31.10;93.30;;;;;;20983952;28;19924;-71
2023/08/10 12:53:25;;;;;;;;;;;31.50;91.70;;;;;;20988713;28;19923;-74
2023/08/10 13:03:27;;;;;;;;;;;31.00;90.80;;;;;;20987123;28;20282;-74
2023/08/10 13:13:28;;;;;;;;;;;30.80;91.80;;;;;;20996205;28;19913;-74
2023/08/10 13:23:29;;;;;;;;;;;30.90;88.90;;;;;;21003732;28;20374;-74
2023/08/10 13:33:31;;;;;;;;;;;30.10;91.10;;;;;;21002725;28;19919;-74
2023/08/10 13:43:32;;;;;;;;;;;30.50;90.00;;;;;;21002756;28;19916;-74
2023/08/10 13:53:33;;;;;;;;;;;30.80;88.10;;;;;;21001690;28;19919;-74
2023/08/10 14:03:33;;;;;;;;;;;30.70;86.10;;;;;;20999438;28;20443;-74
2023/08/10 14:13:34;;;;;;;;;;;30.50;83.10;;;;;;20999677;28;20062;-74
2023/08/10 14:23:35;;;;;;;;;;;31.10;80.80;;;;;;20996731;28;19923;-75
2023/08/10 14:33:36;;;;;;;;;;;30.10;85.30;;;;;;20996648;28;19982;-75
2023/08/10 14:43:37;;;;;;;;;;;29.60;85.80;;;;;;20995982;28;20301;-75
2023/08/10 14:53:38;;;;;;;;;;;29.90;85.80;;;;;;20996829;28;19913;-76
2023/08/10 15:03:38;;;;;;;;;;;30.20;89.60;;;;;;20996003;28;19963;-76
2023/08/10 15:13:39;;;;;;;;;;;29.80;84.40;;;;;;20995295;28;19995;-76
2023/08/10 15:23:39;;;;;;;;;;;30.10;81.00;;;;;;20994333;28;20338;-75
2023/08/10 15:33:41;;;;;;;;;;;29.70;82.10;;;;;;20988679;28;19947;-76
2023/08/10 15:43:42;;;;;;;;;;;29.60;86.90;;;;;;20992918;28;19916;-76
2023/08/10 15:53:43;;;;;;;;;;;29.50;88.80;;;;;;20992041;28;19919;-75
2023/08/10 16:03:43;;;;;;;;;;;28.70;89.10;;;;;;20990895;28;20036;-76
2023/08/10 16:13:44;;;;;;;;;;;28.20;87.70;;;;;;20993579;28;19967;-75
2023/08/10 16:23:45;;;;;;;;;;;28.10;93.40;;;;;;20992148;28;19916;-76
2023/08/10 16:33:46;;;;;;;;;;;27.10;98.90;;;;;;20995394;28;19912;-77
2023/08/10 16:43:47;;;;;;;;;;;26.60;99.90;;;;;;20997045;28;19971;-76
2023/08/10 16:53:48;;;;;;;;;;;27.30;99.20;;;;;;21012289;28;19916;-75
2023/08/10 17:03:48;;;;;;;;;;;27.90;97.30;;;;;;20993208;28;19924;-74
2023/08/10 17:13:49;;;;;;;;;;;27.80;96.50;;;;;;20992277;28;19997;-75
2023/08/10 17:23:50;;;;;;;;;;;27.90;94.50;;;;;;20999427;28;19916;-74
2023/08/10 17:33:51;;;;;;;;;;;26.90;97.70;;;;;;20966859;22;20023;-72
2023/08/10 17:43:51;;;;;;;;;;;26.40;99.90;;;;;;20926488;28;19924;-74
2023/08/10 17:53:52;;;;;;;;;;;25.40;99.90;;;;;;20915550;28;19957;-73
2023/08/10 18:03:53;;;;;;;;;;;24.60;99.90;;;;;;20936215;28;19916;-74
2023/08/10 18:13:53;;;;;;;;;;;24.10;99.90;;;;;;20937857;28;19935;-71
2023/08/10 18:23:55;;;;;;;;;;;24.20;99.90;;;;;;20936799;28;19924;-72
2023/08/10 18:33:56;;;;;;;;;;;23.60;99.90;;;;;;20946265;28;19976;-76
2023/08/10 18:43:57;;;;;;;;;;;23.20;99.90;;;;;;20924834;28;20347;-75
2023/08/10 18:53:57;;;;;;;;;;;23.00;99.90;;;;;;20923011;28;19912;-75
2023/08/10 19:03:58;;;;;;;;;;;22.60;99.90;;;;;;20916585;28;20286;-76
2023/08/10 19:13:59;;;;;;;;;;;22.00;99.90;;;;;;20903047;28;19920;-75
2023/08/10 19:24:00;;;;;;;;;;;21.60;99.90;;;;;;20836487;28;20375;-74
2023/08/10 19:34:00;;;;;;;;;;;21.60;99.90;;;;;;20883965;28;19917;-74
2023/08/10 19:44:01;;;;;;;;;;;21.00;99.90;;;;;;20828552;28;19917;-75
2023/08/10 19:54:02;;;;;;;;;;;20.70;99.90;;;;;;20828346;28;20299;-76
2023/08/10 20:04:02;;;;;;;;;;;20.50;99.90;;;;;;20827030;28;19931;-77
2023/08/10 20:14:03;;;;;;;;;;;20.20;99.90;;;;;;20880941;28;20287;-77
2023/08/10 20:24:04;;;;;;;;;;;20.30;99.90;;;;;;20962607;28;19916;-77
2023/08/10 20:34:05;;;;;;;;;;;20.10;99.90;;;;;;20926820;28;19916;-76
2023/08/10 20:44:05;;;;;;;;;;;20.00;99.90;;;;;;20906622;28;19999;-76
2023/08/10 20:54:06;;;;;;;;;;;19.60;99.90;;;;;;20826727;28;19913;-78
2023/08/10 21:04:07;;;;;;;;;;;19.30;99.90;;;;;;20891097;28;19999;-76
2023/08/10 21:14:08;;;;;;;;;;;19.40;99.90;;;;;;20908155;28;19920;-74
2023/08/10 21:24:10;;;;;;;;;;;18.80;99.90;;;;;;20907999;28;19917;-76
2023/08/10 21:34:10;;;;;;;;;;;18.50;99.90;;;;;;20910218;28;19917;-74
2023/08/10 21:44:11;;;;;;;;;;;18.20;99.90;;;;;;20896563;28;19917;-76
2023/08/10 21:54:12;;;;;;;;;;;17.90;99.90;;;;;;20873583;28;20260;-76
2023/08/10 22:04:12;;;;;;;;;;;17.90;99.90;;;;;;20922975;28;19967;-77
2023/08/10 22:14:14;;;;;;;;;;;17.80;99.90;;;;;;20899661;28;20255;-76
2023/08/10 22:24:14;;;;;;;;;;;17.50;99.90;;;;;;20878851;28;19917;-75
2023/08/10 22:34:15;;;;;;;;;;;17.50;99.90;;;;;;20907493;28;20383;-76
2023/08/10 22:44:16;;;;;;;;;;;17.50;99.90;;;;;;20896719;28;20394;-75
2023/08/10 22:54:16;;;;;;;;;;;17.50;99.90;;;;;;20882696;28;19955;-78
2023/08/10 23:04:17;;;;;;;;;;;17.00;99.90;;;;;;20903681;28;19971;-76
2023/08/10 23:14:18;;;;;;;;;;;17.00;99.90;;;;;;20905347;28;19912;-76
2023/08/10 23:24:19;;;;;;;;;;;17.00;99.90;;;;;;20830589;28;19917;-76
2023/08/10 23:34:19;;;;;;;;;;;17.00;99.90;;;;;;20960891;22;20020;-78
2023/08/10 23:44:20;;;;;;;;;;;16.70;99.90;;;;;;20848838;28;20391;-78
2023/08/10 23:54:22;;;;;;;;;;;16.70;99.90;;;;;;20839742;28;19913;-78
